sensor_id;sensor_type;location;lat;lon;timestamp;P1;durP1;ratioP1;P2;durP2;ratioP2
22851;SDS011;11592;45.460;9.240;2023-12-20T00:02:16;6.65;;;2.75;;
22851;SDS011;11592;45.460;9.240;2023-12-20T00:04:44;5.65;;;2.42;;
22851;SDS011;11592;45.460;9.240;2023-12-20T00:07:11;5.63;;;2.38;;
22851;SDS011;11592;45.460;9.240;2023-12-20T00:09:38;5.53;;;2.35;;
22851;SDS011;11592;45.460;9.240;2023-12-20T00:12:06;6.78;;;2.70;;
22851;SDS011;11592;45.460;9.240;2023-12-20T00:14:33;7.03;;;2.88;;
22851;SDS011;11592;45.460;9.240;2023-12-20T00:17:00;6.45;;;2.58;;
22851;SDS011;11592;45.460;9.240;2023-12-20T00:19:27;7.35;;;2.95;;
22851;SDS011;11592;45.460;9.240;2023-12-20T00:21:55;6.78;;;2.90;;
22851;SDS011;11592;45.460;9.240;2023-12-20T00:24:22;7.35;;;2.95;;
22851;SDS011;11592;45.460;9.240;2023-12-20T00:26:49;6.95;;;2.63;;
22851;SDS011;11592;45.460;9.240;2023-12-20T00:29:16;6.88;;;2.78;;
22851;SDS011;11592;45.460;9.240;2023-12-20T00:31:43;8.05;;;3.13;;
22851;SDS011;11592;45.460;9.240;2023-12-20T00:34:11;6.55;;;2.63;;
22851;SDS011;11592;45.460;9.240;2023-12-20T00:36:38;8.50;;;3.45;;
22851;SDS011;11592;45.460;9.240;2023-12-20T00:39:05;7.07;;;2.97;;
22851;SDS011;11592;45.460;9.240;2023-12-20T00:41:33;8.77;;;3.53;;
22851;SDS011;11592;45.460;9.240;2023-12-20T00:44:00;8.00;;;3.28;;
22851;SDS011;11592;45.460;9.240;2023-12-20T00:46:27;9.05;;;3.67;;
22851;SDS011;11592;45.460;9.240;2023-12-20T00:48:54;8.30;;;3.30;;
22851;SDS011;11592;45.460;9.240;2023-12-20T00:51:22;8.48;;;3.38;;
22851;SDS011;11592;45.460;9.240;2023-12-20T00:53:49;6.75;;;2.65;;
22851;SDS011;11592;45.460;9.240;2023-12-20T00:56:20;7.90;;;3.10;;
22851;SDS011;11592;45.460;9.240;2023-12-20T00:58:48;7.35;;;2.95;;
22851;SDS011;11592;45.460;9.240;2023-12-20T01:01:15;7.07;;;2.80;;
22851;SDS011;11592;45.460;9.240;2023-12-20T01:03:42;7.07;;;2.95;;
22851;SDS011;11592;45.460;9.240;2023-12-20T01:06:10;8.10;;;3.17;;
22851;SDS011;11592;45.460;9.240;2023-12-20T01:08:37;9.05;;;3.53;;
22851;SDS011;11592;45.460;9.240;2023-12-20T01:11:05;7.00;;;2.78;;
22851;SDS011;11592;45.460;9.240;2023-12-20T01:13:32;7.10;;;2.95;;
22851;SDS011;11592;45.460;9.240;2023-12-20T01:15:59;7.68;;;3.10;;
22851;SDS011;11592;45.460;9.240;2023-12-20T01:18:27;6.57;;;2.67;;
22851;SDS011;11592;45.460;9.240;2023-12-20T01:20:54;8.70;;;3.40;;
22851;SDS011;11592;45.460;9.240;2023-12-20T01:23:21;7.28;;;2.92;;
22851;SDS011;11592;45.460;9.240;2023-12-20T01:25:49;5.75;;;2.38;;
22851;SDS011;11592;45.460;9.240;2023-12-20T01:28:16;6.53;;;2.55;;
22851;SDS011;11592;45.460;9.240;2023-12-20T01:30:43;7.15;;;2.78;;
22851;SDS011;11592;45.460;9.240;2023-12-20T01:33:11;6.15;;;2.45;;
22851;SDS011;11592;45.460;9.240;2023-12-20T01:35:38;7.03;;;2.67;;
22851;SDS011;11592;45.460;9.240;2023-12-20T01:38:05;7.22;;;2.83;;
22851;SDS011;11592;45.460;9.240;2023-12-20T01:40:33;8.85;;;3.35;;
22851;SDS011;11592;45.460;9.240;2023-12-20T01:43:00;7.70;;;3.13;;
22851;SDS011;11592;45.460;9.240;2023-12-20T01:45:29;6.43;;;2.58;;
22851;SDS011;11592;45.460;9.240;2023-12-20T01:47:56;6.88;;;2.72;;
22851;SDS011;11592;45.460;9.240;2023-12-20T01:50:24;8.05;;;3.25;;
22851;SDS011;11592;45.460;9.240;2023-12-20T01:52:52;9.75;;;3.58;;
22851;SDS011;11592;45.460;9.240;2023-12-20T01:55:24;9.60;;;3.55;;
22851;SDS011;11592;45.460;9.240;2023-12-20T01:57:53;8.05;;;3.35;;
22851;SDS011;11592;45.460;9.240;2023-12-20T02:00:20;7.97;;;2.97;;
22851;SDS011;11592;45.460;9.240;2023-12-20T02:02:53;6.70;;;2.67;;
22851;SDS011;11592;45.460;9.240;2023-12-20T02:05:21;8.00;;;3.33;;
22851;SDS011;11592;45.460;9.240;2023-12-20T02:07:49;8.00;;;3.08;;
22851;SDS011;11592;45.460;9.240;2023-12-20T02:10:16;8.25;;;3.17;;
22851;SDS011;11592;45.460;9.240;2023-12-20T02:12:43;7.43;;;2.90;;
22851;SDS011;11592;45.460;9.240;2023-12-20T02:15:11;8.45;;;3.30;;
22851;SDS011;11592;45.460;9.240;2023-12-20T02:17:38;7.78;;;3.15;;
22851;SDS011;11592;45.460;9.240;2023-12-20T02:20:06;7.88;;;2.90;;
22851;SDS011;11592;45.460;9.240;2023-12-20T02:22:34;7.60;;;2.92;;
22851;SDS011;11592;45.460;9.240;2023-12-20T02:25:01;7.63;;;3.10;;
22851;SDS011;11592;45.460;9.240;2023-12-20T02:27:29;7.78;;;2.92;;
22851;SDS011;11592;45.460;9.240;2023-12-20T02:29:56;7.18;;;2.90;;
22851;SDS011;11592;45.460;9.240;2023-12-20T02:32:24;7.50;;;3.13;;
22851;SDS011;11592;45.460;9.240;2023-12-20T02:34:55;8.60;;;3.30;;
22851;SDS011;11592;45.460;9.240;2023-12-20T02:37:23;7.55;;;3.05;;
22851;SDS011;11592;45.460;9.240;2023-12-20T02:39:50;7.55;;;3.03;;
22851;SDS011;11592;45.460;9.240;2023-12-20T02:42:17;8.23;;;3.47;;
22851;SDS011;11592;45.460;9.240;2023-12-20T02:44:44;9.10;;;3.53;;
22851;SDS011;11592;45.460;9.240;2023-12-20T02:47:11;9.15;;;3.58;;
22851;SDS011;11592;45.460;9.240;2023-12-20T02:49:39;9.40;;;3.60;;
22851;SDS011;11592;45.460;9.240;2023-12-20T02:52:06;8.23;;;3.08;;
22851;SDS011;11592;45.460;9.240;2023-12-20T02:54:33;6.82;;;2.80;;
22851;SDS011;11592;45.460;9.240;2023-12-20T02:57:00;6.53;;;2.50;;
22851;SDS011;11592;45.460;9.240;2023-12-20T02:59:28;6.72;;;2.67;;
22851;SDS011;11592;45.460;9.240;2023-12-20T03:01:55;6.35;;;2.55;;
22851;SDS011;11592;45.460;9.240;2023-12-20T03:04:22;6.40;;;2.65;;
22851;SDS011;11592;45.460;9.240;2023-12-20T03:06:50;7.72;;;3.00;;
22851;SDS011;11592;45.460;9.240;2023-12-20T03:09:17;5.65;;;2.25;;
22851;SDS011;11592;45.460;9.240;2023-12-20T03:11:44;7.85;;;3.10;;
22851;SDS011;11592;45.460;9.240;2023-12-20T03:14:12;8.70;;;3.35;;
22851;SDS011;11592;45.460;9.240;2023-12-20T03:16:39;7.20;;;2.88;;
22851;SDS011;11592;45.460;9.240;2023-12-20T03:19:06;7.35;;;2.80;;
22851;SDS011;11592;45.460;9.240;2023-12-20T03:21:33;9.30;;;3.58;;
22851;SDS011;11592;45.460;9.240;2023-12-20T03:24:00;9.73;;;3.63;;
22851;SDS011;11592;45.460;9.240;2023-12-20T03:26:27;7.68;;;3.08;;
22851;SDS011;11592;45.460;9.240;2023-12-20T03:28:55;8.23;;;3.15;;
22851;SDS011;11592;45.460;9.240;2023-12-20T03:31:22;7.75;;;2.90;;
22851;SDS011;11592;45.460;9.240;2023-12-20T03:33:49;8.10;;;3.15;;
22851;SDS011;11592;45.460;9.240;2023-12-20T03:36:18;7.68;;;3.03;;
22851;SDS011;11592;45.460;9.240;2023-12-20T03:38:45;7.57;;;2.90;;
22851;SDS011;11592;45.460;9.240;2023-12-20T03:41:13;7.93;;;3.05;;
22851;SDS011;11592;45.460;9.240;2023-12-20T03:43:40;8.25;;;3.28;;
22851;SDS011;11592;45.460;9.240;2023-12-20T03:46:08;7.10;;;2.80;;
22851;SDS011;11592;45.460;9.240;2023-12-20T03:48:35;5.93;;;2.38;;
22851;SDS011;11592;45.460;9.240;2023-12-20T03:51:02;7.13;;;2.67;;
22851;SDS011;11592;45.460;9.240;2023-12-20T03:53:29;6.68;;;2.65;;
22851;SDS011;11592;45.460;9.240;2023-12-20T03:55:56;7.55;;;2.95;;
22851;SDS011;11592;45.460;9.240;2023-12-20T03:58:24;8.30;;;3.13;;
22851;SDS011;11592;45.460;9.240;2023-12-20T04:00:51;8.43;;;3.30;;
22851;SDS011;11592;45.460;9.240;2023-12-20T04:03:18;7.95;;;3.08;;
22851;SDS011;11592;45.460;9.240;2023-12-20T04:05:46;7.18;;;2.90;;
22851;SDS011;11592;45.460;9.240;2023-12-20T04:08:13;8.25;;;3.20;;
22851;SDS011;11592;45.460;9.240;2023-12-20T04:10:40;7.88;;;3.05;;
22851;SDS011;11592;45.460;9.240;2023-12-20T04:13:07;6.80;;;2.60;;
22851;SDS011;11592;45.460;9.240;2023-12-20T04:15:34;5.63;;;2.35;;
22851;SDS011;11592;45.460;9.240;2023-12-20T04:18:02;7.70;;;3.00;;
22851;SDS011;11592;45.460;9.240;2023-12-20T04:20:29;6.55;;;2.55;;
22851;SDS011;11592;45.460;9.240;2023-12-20T04:22:56;9.35;;;3.47;;
22851;SDS011;11592;45.460;9.240;2023-12-20T04:25:23;6.30;;;2.50;;
22851;SDS011;11592;45.460;9.240;2023-12-20T04:27:51;8.05;;;3.05;;
22851;SDS011;11592;45.460;9.240;2023-12-20T04:30:18;6.68;;;2.65;;
22851;SDS011;11592;45.460;9.240;2023-12-20T04:32:46;7.88;;;3.05;;
22851;SDS011;11592;45.460;9.240;2023-12-20T04:35:13;7.57;;;2.97;;
22851;SDS011;11592;45.460;9.240;2023-12-20T04:37:40;9.23;;;3.47;;
22851;SDS011;11592;45.460;9.240;2023-12-20T04:40:07;6.22;;;2.35;;
22851;SDS011;11592;45.460;9.240;2023-12-20T04:42:34;9.30;;;3.63;;
22851;SDS011;11592;45.460;9.240;2023-12-20T04:45:01;8.43;;;3.45;;
22851;SDS011;11592;45.460;9.240;2023-12-20T04:47:29;7.88;;;3.05;;
22851;SDS011;11592;45.460;9.240;2023-12-20T04:49:56;9.20;;;3.42;;
22851;SDS011;11592;45.460;9.240;2023-12-20T04:52:24;8.18;;;3.15;;
22851;SDS011;11592;45.460;9.240;2023-12-20T04:54:51;6.35;;;2.60;;
22851;SDS011;11592;45.460;9.240;2023-12-20T04:57:18;7.22;;;2.83;;
22851;SDS011;11592;45.460;9.240;2023-12-20T04:59:45;7.63;;;2.88;;
22851;SDS011;11592;45.460;9.240;2023-12-20T05:02:12;7.57;;;2.97;;
22851;SDS011;11592;45.460;9.240;2023-12-20T05:04:40;7.00;;;2.80;;
22851;SDS011;11592;45.460;9.240;2023-12-20T05:07:07;7.35;;;3.03;;
22851;SDS011;11592;45.460;9.240;2023-12-20T05:09:35;7.25;;;2.83;;
22851;SDS011;11592;45.460;9.240;2023-12-20T05:12:02;9.02;;;3.42;;
22851;SDS011;11592;45.460;9.240;2023-12-20T05:14:29;7.30;;;2.85;;
22851;SDS011;11592;45.460;9.240;2023-12-20T05:16:57;7.55;;;2.83;;
22851;SDS011;11592;45.460;9.240;2023-12-20T05:19:24;8.13;;;3.08;;
22851;SDS011;11592;45.460;9.240;2023-12-20T05:21:52;6.82;;;2.70;;
22851;SDS011;11592;45.460;9.240;2023-12-20T05:24:20;9.18;;;3.55;;
22851;SDS011;11592;45.460;9.240;2023-12-20T05:26:47;7.00;;;2.83;;
22851;SDS011;11592;45.460;9.240;2023-12-20T05:29:18;7.30;;;2.90;;
22851;SDS011;11592;45.460;9.240;2023-12-20T05:31:46;7.78;;;3.08;;
22851;SDS011;11592;45.460;9.240;2023-12-20T05:34:13;8.40;;;3.38;;
22851;SDS011;11592;45.460;9.240;2023-12-20T05:36:40;6.90;;;2.70;;
22851;SDS011;11592;45.460;9.240;2023-12-20T05:39:07;7.72;;;3.03;;
22851;SDS011;11592;45.460;9.240;2023-12-20T05:41:35;7.07;;;2.83;;
22851;SDS011;11592;45.460;9.240;2023-12-20T05:44:02;8.98;;;3.40;;
22851;SDS011;11592;45.460;9.240;2023-12-20T05:46:29;7.80;;;3.15;;
22851;SDS011;11592;45.460;9.240;2023-12-20T05:48:56;9.82;;;3.72;;
22851;SDS011;11592;45.460;9.240;2023-12-20T05:51:24;8.02;;;3.08;;
22851;SDS011;11592;45.460;9.240;2023-12-20T05:53:51;7.45;;;3.03;;
22851;SDS011;11592;45.460;9.240;2023-12-20T05:56:19;7.07;;;2.85;;
22851;SDS011;11592;45.460;9.240;2023-12-20T05:58:46;9.98;;;3.90;;
22851;SDS011;11592;45.460;9.240;2023-12-20T06:01:16;8.88;;;3.60;;
22851;SDS011;11592;45.460;9.240;2023-12-20T06:03:45;8.30;;;3.20;;
22851;SDS011;11592;45.460;9.240;2023-12-20T06:06:13;11.80;;;4.45;;
22851;SDS011;11592;45.460;9.240;2023-12-20T06:08:42;10.80;;;4.18;;
22851;SDS011;11592;45.460;9.240;2023-12-20T06:11:10;10.07;;;3.85;;
22851;SDS011;11592;45.460;9.240;2023-12-20T06:13:37;8.63;;;3.47;;
22851;SDS011;11592;45.460;9.240;2023-12-20T06:16:05;10.05;;;3.90;;
22851;SDS011;11592;45.460;9.240;2023-12-20T06:18:33;7.35;;;2.92;;
22851;SDS011;11592;45.460;9.240;2023-12-20T06:21:03;7.93;;;3.25;;
22851;SDS011;11592;45.460;9.240;2023-12-20T06:23:31;8.10;;;3.40;;
22851;SDS011;11592;45.460;9.240;2023-12-20T06:25:58;6.93;;;2.90;;
22851;SDS011;11592;45.460;9.240;2023-12-20T06:28:25;7.95;;;3.45;;
22851;SDS011;11592;45.460;9.240;2023-12-20T06:30:52;9.50;;;3.85;;
22851;SDS011;11592;45.460;9.240;2023-12-20T06:33:21;7.93;;;3.33;;
22851;SDS011;11592;45.460;9.240;2023-12-20T06:35:49;7.63;;;3.17;;
22851;SDS011;11592;45.460;9.240;2023-12-20T06:38:17;7.88;;;3.30;;
22851;SDS011;11592;45.460;9.240;2023-12-20T06:40:45;6.63;;;2.88;;
22851;SDS011;11592;45.460;9.240;2023-12-20T06:43:12;8.05;;;3.47;;
22851;SDS011;11592;45.460;9.240;2023-12-20T06:45:57;7.78;;;3.30;;
22851;SDS011;11592;45.460;9.240;2023-12-20T06:48:26;5.82;;;2.38;;
22851;SDS011;11592;45.460;9.240;2023-12-20T06:50:53;7.97;;;3.20;;
22851;SDS011;11592;45.460;9.240;2023-12-20T06:53:20;7.10;;;3.05;;
22851;SDS011;11592;45.460;9.240;2023-12-20T06:55:48;7.50;;;2.95;;
22851;SDS011;11592;45.460;9.240;2023-12-20T06:58:15;5.93;;;2.60;;
22851;SDS011;11592;45.460;9.240;2023-12-20T07:00:43;7.78;;;3.30;;
22851;SDS011;11592;45.460;9.240;2023-12-20T07:03:10;9.80;;;4.03;;
22851;SDS011;11592;45.460;9.240;2023-12-20T07:05:37;7.60;;;3.20;;
22851;SDS011;11592;45.460;9.240;2023-12-20T07:08:05;6.88;;;3.00;;
22851;SDS011;11592;45.460;9.240;2023-12-20T07:10:32;6.28;;;2.67;;
22851;SDS011;11592;45.460;9.240;2023-12-20T07:13:00;7.03;;;3.08;;
22851;SDS011;11592;45.460;9.240;2023-12-20T07:15:27;7.68;;;3.15;;
22851;SDS011;11592;45.460;9.240;2023-12-20T07:17:55;6.97;;;3.03;;
22851;SDS011;11592;45.460;9.240;2023-12-20T07:20:23;4.60;;;2.30;;
22851;SDS011;11592;45.460;9.240;2023-12-20T07:22:50;5.97;;;2.70;;
22851;SDS011;11592;45.460;9.240;2023-12-20T07:25:17;4.55;;;2.28;;
22851;SDS011;11592;45.460;9.240;2023-12-20T07:27:44;5.18;;;2.50;;
22851;SDS011;11592;45.460;9.240;2023-12-20T07:30:12;9.52;;;4.35;;
22851;SDS011;11592;45.460;9.240;2023-12-20T07:32:40;8.07;;;3.60;;
22851;SDS011;11592;45.460;9.240;2023-12-20T07:35:07;6.50;;;2.97;;
22851;SDS011;11592;45.460;9.240;2023-12-20T07:37:34;6.80;;;3.05;;
22851;SDS011;11592;45.460;9.240;2023-12-20T07:40:02;5.75;;;2.63;;
22851;SDS011;11592;45.460;9.240;2023-12-20T07:42:29;5.18;;;2.45;;
22851;SDS011;11592;45.460;9.240;2023-12-20T07:44:57;6.57;;;3.00;;
22851;SDS011;11592;45.460;9.240;2023-12-20T07:47:24;5.68;;;2.75;;
22851;SDS011;11592;45.460;9.240;2023-12-20T07:49:51;6.05;;;2.88;;
22851;SDS011;11592;45.460;9.240;2023-12-20T07:52:19;5.53;;;2.53;;
22851;SDS011;11592;45.460;9.240;2023-12-20T07:54:48;6.13;;;3.00;;
22851;SDS011;11592;45.460;9.240;2023-12-20T07:57:15;5.82;;;2.65;;
22851;SDS011;11592;45.460;9.240;2023-12-20T07:59:42;5.22;;;2.55;;
22851;SDS011;11592;45.460;9.240;2023-12-20T08:02:10;5.70;;;2.72;;
22851;SDS011;11592;45.460;9.240;2023-12-20T08:04:37;6.70;;;3.20;;
22851;SDS011;11592;45.460;9.240;2023-12-20T08:07:05;5.38;;;2.58;;
22851;SDS011;11592;45.460;9.240;2023-12-20T08:09:32;5.10;;;2.58;;
22851;SDS011;11592;45.460;9.240;2023-12-20T08:12:00;5.15;;;2.58;;
22851;SDS011;11592;45.460;9.240;2023-12-20T08:14:28;4.82;;;2.30;;
22851;SDS011;11592;45.460;9.240;2023-12-20T08:16:54;5.65;;;2.80;;
22851;SDS011;11592;45.460;9.240;2023-12-20T08:19:21;5.88;;;2.95;;
22851;SDS011;11592;45.460;9.240;2023-12-20T08:21:48;4.53;;;2.30;;
22851;SDS011;11592;45.460;9.240;2023-12-20T08:24:16;6.28;;;3.08;;
22851;SDS011;11592;45.460;9.240;2023-12-20T08:26:43;6.38;;;3.08;;
22851;SDS011;11592;45.460;9.240;2023-12-20T08:29:12;6.03;;;2.95;;
22851;SDS011;11592;45.460;9.240;2023-12-20T08:31:40;6.85;;;3.30;;
22851;SDS011;11592;45.460;9.240;2023-12-20T08:34:07;5.50;;;2.47;;
22851;SDS011;11592;45.460;9.240;2023-12-20T08:36:35;5.22;;;2.55;;
22851;SDS011;11592;45.460;9.240;2023-12-20T08:39:02;5.20;;;2.67;;
22851;SDS011;11592;45.460;9.240;2023-12-20T08:41:32;5.00;;;2.47;;
22851;SDS011;11592;45.460;9.240;2023-12-20T08:43:59;5.80;;;2.97;;
22851;SDS011;11592;45.460;9.240;2023-12-20T08:46:26;5.10;;;2.63;;
22851;SDS011;11592;45.460;9.240;2023-12-20T08:48:54;4.90;;;2.55;;
22851;SDS011;11592;45.460;9.240;2023-12-20T08:51:22;5.25;;;2.80;;
22851;SDS011;11592;45.460;9.240;2023-12-20T08:53:51;4.22;;;2.25;;
22851;SDS011;11592;45.460;9.240;2023-12-20T08:56:19;4.57;;;2.40;;
22851;SDS011;11592;45.460;9.240;2023-12-20T08:58:46;5.90;;;3.08;;
22851;SDS011;11592;45.460;9.240;2023-12-20T09:01:14;6.00;;;3.20;;
22851;SDS011;11592;45.460;9.240;2023-12-20T09:03:41;4.07;;;2.28;;
22851;SDS011;11592;45.460;9.240;2023-12-20T09:06:08;5.03;;;2.72;;
22851;SDS011;11592;45.460;9.240;2023-12-20T09:08:36;6.03;;;3.10;;
22851;SDS011;11592;45.460;9.240;2023-12-20T09:11:03;5.05;;;2.83;;
22851;SDS011;11592;45.460;9.240;2023-12-20T09:13:31;2.08;;;1.30;;
22851;SDS011;11592;45.460;9.240;2023-12-20T09:15:58;4.13;;;2.40;;
22851;SDS011;11592;45.460;9.240;2023-12-20T09:18:26;3.35;;;1.88;;
22851;SDS011;11592;45.460;9.240;2023-12-20T09:20:52;4.68;;;2.67;;
22851;SDS011;11592;45.460;9.240;2023-12-20T09:23:20;4.65;;;2.55;;
22851;SDS011;11592;45.460;9.240;2023-12-20T09:25:46;4.88;;;2.50;;
22851;SDS011;11592;45.460;9.240;2023-12-20T09:28:14;4.95;;;2.40;;
22851;SDS011;11592;45.460;9.240;2023-12-20T09:30:41;2.97;;;1.50;;
22851;SDS011;11592;45.460;9.240;2023-12-20T09:33:09;2.97;;;1.50;;
22851;SDS011;11592;45.460;9.240;2023-12-20T09:35:36;4.78;;;2.33;;
22851;SDS011;11592;45.460;9.240;2023-12-20T09:38:04;3.90;;;2.05;;
22851;SDS011;11592;45.460;9.240;2023-12-20T09:40:32;4.55;;;2.25;;
22851;SDS011;11592;45.460;9.240;2023-12-20T09:43:03;4.07;;;2.25;;
22851;SDS011;11592;45.460;9.240;2023-12-20T09:45:31;4.32;;;2.25;;
22851;SDS011;11592;45.460;9.240;2023-12-20T09:47:59;4.47;;;2.38;;
22851;SDS011;11592;45.460;9.240;2023-12-20T09:50:26;3.72;;;2.15;;
22851;SDS011;11592;45.460;9.240;2023-12-20T09:52:54;6.00;;;3.13;;
22851;SDS011;11592;45.460;9.240;2023-12-20T09:55:24;7.13;;;2.53;;
22851;SDS011;11592;45.460;9.240;2023-12-20T09:57:52;5.68;;;2.35;;
22851;SDS011;11592;45.460;9.240;2023-12-20T10:00:19;6.13;;;2.40;;
22851;SDS011;11592;45.460;9.240;2023-12-20T10:02:59;7.22;;;2.97;;
22851;SDS011;11592;45.460;9.240;2023-12-20T10:05:36;9.57;;;4.03;;
22851;SDS011;11592;45.460;9.240;2023-12-20T10:08:03;5.22;;;2.20;;
22851;SDS011;11592;45.460;9.240;2023-12-20T10:10:30;5.47;;;2.47;;
22851;SDS011;11592;45.460;9.240;2023-12-20T10:13:11;7.50;;;3.08;;
22851;SDS011;11592;45.460;9.240;2023-12-20T10:15:39;5.40;;;2.38;;
22851;SDS011;11592;45.460;9.240;2023-12-20T10:18:08;5.53;;;2.45;;
22851;SDS011;11592;45.460;9.240;2023-12-20T10:20:36;9.30;;;3.83;;
22851;SDS011;11592;45.460;9.240;2023-12-20T10:23:03;6.05;;;2.67;;
22851;SDS011;11592;45.460;9.240;2023-12-20T10:25:30;5.43;;;2.42;;
22851;SDS011;11592;45.460;9.240;2023-12-20T10:28:08;6.32;;;2.85;;
22851;SDS011;11592;45.460;9.240;2023-12-20T10:30:41;5.47;;;2.42;;
22851;SDS011;11592;45.460;9.240;2023-12-20T10:33:09;6.05;;;2.53;;
22851;SDS011;11592;45.460;9.240;2023-12-20T10:35:38;6.18;;;2.72;;
22851;SDS011;11592;45.460;9.240;2023-12-20T10:38:10;5.15;;;2.40;;
22851;SDS011;11592;45.460;9.240;2023-12-20T10:40:40;6.30;;;2.75;;
22851;SDS011;11592;45.460;9.240;2023-12-20T10:43:07;4.00;;;1.92;;
22851;SDS011;11592;45.460;9.240;2023-12-20T10:45:35;6.03;;;2.72;;
22851;SDS011;11592;45.460;9.240;2023-12-20T10:48:03;5.68;;;2.53;;
22851;SDS011;11592;45.460;9.240;2023-12-20T10:50:31;3.95;;;1.85;;
22851;SDS011;11592;45.460;9.240;2023-12-20T10:52:58;4.53;;;2.17;;
22851;SDS011;11592;45.460;9.240;2023-12-20T10:55:26;5.40;;;2.35;;
22851;SDS011;11592;45.460;9.240;2023-12-20T10:57:58;5.63;;;2.65;;
22851;SDS011;11592;45.460;9.240;2023-12-20T11:00:28;4.97;;;2.33;;
22851;SDS011;11592;45.460;9.240;2023-12-20T11:03:00;5.68;;;2.60;;
22851;SDS011;11592;45.460;9.240;2023-12-20T11:05:34;6.00;;;2.72;;
22851;SDS011;11592;45.460;9.240;2023-12-20T11:14:08;4.82;;;2.28;;
22851;SDS011;11592;45.460;9.240;2023-12-20T11:16:43;4.78;;;2.25;;
22851;SDS011;11592;45.460;9.240;2023-12-20T11:19:20;6.32;;;2.95;;
22851;SDS011;11592;45.460;9.240;2023-12-20T11:21:47;6.78;;;3.20;;
22851;SDS011;11592;45.460;9.240;2023-12-20T11:24:15;6.40;;;3.00;;
22851;SDS011;11592;45.460;9.240;2023-12-20T11:26:46;5.88;;;2.83;;
22851;SDS011;11592;45.460;9.240;2023-12-20T11:32:02;5.88;;;2.75;;
22851;SDS011;11592;45.460;9.240;2023-12-20T11:34:31;5.38;;;2.50;;
22851;SDS011;11592;45.460;9.240;2023-12-20T11:37:00;5.47;;;2.55;;
22851;SDS011;11592;45.460;9.240;2023-12-20T11:39:29;5.68;;;2.75;;
22851;SDS011;11592;45.460;9.240;2023-12-20T11:41:57;8.43;;;3.67;;
22851;SDS011;11592;45.460;9.240;2023-12-20T11:44:31;4.35;;;2.05;;
22851;SDS011;11592;45.460;9.240;2023-12-20T11:46:58;6.07;;;2.58;;
22851;SDS011;11592;45.460;9.240;2023-12-20T11:49:26;5.38;;;2.42;;
22851;SDS011;11592;45.460;9.240;2023-12-20T11:51:55;6.30;;;2.65;;
22851;SDS011;11592;45.460;9.240;2023-12-20T11:54:23;4.53;;;2.10;;
22851;SDS011;11592;45.460;9.240;2023-12-20T11:56:49;4.65;;;2.25;;
22851;SDS011;11592;45.460;9.240;2023-12-20T11:59:17;4.05;;;2.10;;
22851;SDS011;11592;45.460;9.240;2023-12-20T12:01:49;6.68;;;2.15;;
22851;SDS011;11592;45.460;9.240;2023-12-20T12:04:18;8.90;;;2.88;;
22851;SDS011;11592;45.460;9.240;2023-12-20T12:06:46;7.13;;;2.30;;
22851;SDS011;11592;45.460;9.240;2023-12-20T12:09:13;4.35;;;1.48;;
22851;SDS011;11592;45.460;9.240;2023-12-20T12:11:40;9.35;;;3.05;;
22851;SDS011;11592;45.460;9.240;2023-12-20T12:14:07;7.30;;;2.47;;
22851;SDS011;11592;45.460;9.240;2023-12-20T12:16:35;7.20;;;2.40;;
22851;SDS011;11592;45.460;9.240;2023-12-20T12:19:02;8.18;;;2.55;;
22851;SDS011;11592;45.460;9.240;2023-12-20T12:21:30;11.95;;;3.75;;
22851;SDS011;11592;45.460;9.240;2023-12-20T12:24:06;9.60;;;3.13;;
22851;SDS011;11592;45.460;9.240;2023-12-20T12:26:36;11.35;;;3.83;;
22851;SDS011;11592;45.460;9.240;2023-12-20T12:29:06;8.85;;;2.72;;
22851;SDS011;11592;45.460;9.240;2023-12-20T12:31:34;10.75;;;3.20;;
22851;SDS011;11592;45.460;9.240;2023-12-20T12:34:02;7.75;;;2.60;;
22851;SDS011;11592;45.460;9.240;2023-12-20T12:36:29;10.27;;;3.28;;
22851;SDS011;11592;45.460;9.240;2023-12-20T12:38:57;8.82;;;2.95;;
22851;SDS011;11592;45.460;9.240;2023-12-20T12:41:24;8.15;;;2.80;;
22851;SDS011;11592;45.460;9.240;2023-12-20T12:43:51;6.55;;;2.25;;
22851;SDS011;11592;45.460;9.240;2023-12-20T12:46:19;8.32;;;2.88;;
22851;SDS011;11592;45.460;9.240;2023-12-20T12:48:46;14.55;;;4.50;;
22851;SDS011;11592;45.460;9.240;2023-12-20T12:51:15;8.25;;;2.58;;
22851;SDS011;11592;45.460;9.240;2023-12-20T12:53:42;9.68;;;3.03;;
22851;SDS011;11592;45.460;9.240;2023-12-20T12:56:10;5.13;;;1.70;;
22851;SDS011;11592;45.460;9.240;2023-12-20T12:58:41;8.32;;;2.78;;
22851;SDS011;11592;45.460;9.240;2023-12-20T13:01:08;6.68;;;2.55;;
22851;SDS011;11592;45.460;9.240;2023-12-20T13:03:35;5.93;;;2.40;;
22851;SDS011;11592;45.460;9.240;2023-12-20T13:06:03;6.53;;;2.42;;
22851;SDS011;11592;45.460;9.240;2023-12-20T13:08:32;6.95;;;2.75;;
22851;SDS011;11592;45.460;9.240;2023-12-20T13:10:59;10.95;;;3.08;;
22851;SDS011;11592;45.460;9.240;2023-12-20T13:13:27;11.30;;;3.33;;
22851;SDS011;11592;45.460;9.240;2023-12-20T13:15:54;9.57;;;2.67;;
22851;SDS011;11592;45.460;9.240;2023-12-20T13:18:22;11.82;;;3.40;;
22851;SDS011;11592;45.460;9.240;2023-12-20T13:20:49;13.25;;;3.72;;
22851;SDS011;11592;45.460;9.240;2023-12-20T13:23:16;11.63;;;3.38;;
22851;SDS011;11592;45.460;9.240;2023-12-20T13:25:46;10.57;;;3.17;;
22851;SDS011;11592;45.460;9.240;2023-12-20T13:28:13;9.40;;;2.72;;
22851;SDS011;11592;45.460;9.240;2023-12-20T13:30:40;8.07;;;2.55;;
22851;SDS011;11592;45.460;9.240;2023-12-20T13:33:07;10.43;;;2.95;;
22851;SDS011;11592;45.460;9.240;2023-12-20T13:35:35;10.73;;;3.03;;
22851;SDS011;11592;45.460;9.240;2023-12-20T13:38:02;14.15;;;4.05;;
22851;SDS011;11592;45.460;9.240;2023-12-20T13:40:29;11.15;;;3.35;;
22851;SDS011;11592;45.460;9.240;2023-12-20T13:42:57;11.88;;;3.35;;
22851;SDS011;11592;45.460;9.240;2023-12-20T13:45:24;8.93;;;2.90;;
22851;SDS011;11592;45.460;9.240;2023-12-20T13:47:51;9.55;;;3.15;;
22851;SDS011;11592;45.460;9.240;2023-12-20T13:50:19;9.93;;;3.00;;
22851;SDS011;11592;45.460;9.240;2023-12-20T13:52:46;11.75;;;3.60;;
22851;SDS011;11592;45.460;9.240;2023-12-20T13:55:13;12.30;;;3.72;;
22851;SDS011;11592;45.460;9.240;2023-12-20T13:57:40;10.98;;;3.28;;
22851;SDS011;11592;45.460;9.240;2023-12-20T14:00:20;14.05;;;4.15;;
22851;SDS011;11592;45.460;9.240;2023-12-20T14:02:48;9.25;;;2.70;;
22851;SDS011;11592;45.460;9.240;2023-12-20T14:05:16;13.30;;;3.67;;
22851;SDS011;11592;45.460;9.240;2023-12-20T14:07:50;10.63;;;2.95;;
22851;SDS011;11592;45.460;9.240;2023-12-20T14:10:17;12.82;;;3.45;;
22851;SDS011;11592;45.460;9.240;2023-12-20T14:12:44;14.27;;;3.78;;
22851;SDS011;11592;45.460;9.240;2023-12-20T14:15:12;14.00;;;3.80;;
22851;SDS011;11592;45.460;9.240;2023-12-20T14:17:40;12.00;;;3.17;;
22851;SDS011;11592;45.460;9.240;2023-12-20T14:20:08;10.45;;;2.80;;
22851;SDS011;11592;45.460;9.240;2023-12-20T14:22:36;9.68;;;2.60;;
22851;SDS011;11592;45.460;9.240;2023-12-20T14:25:05;9.45;;;2.53;;
22851;SDS011;11592;45.460;9.240;2023-12-20T14:27:32;10.40;;;2.75;;
22851;SDS011;11592;45.460;9.240;2023-12-20T14:30:00;11.98;;;3.15;;
22851;SDS011;11592;45.460;9.240;2023-12-20T14:32:27;7.13;;;2.42;;
22851;SDS011;11592;45.460;9.240;2023-12-20T14:34:54;8.75;;;2.80;;
22851;SDS011;11592;45.460;9.240;2023-12-20T14:37:22;7.53;;;2.63;;
22851;SDS011;11592;45.460;9.240;2023-12-20T14:39:49;9.68;;;3.10;;
22851;SDS011;11592;45.460;9.240;2023-12-20T14:42:16;9.70;;;3.17;;
22851;SDS011;11592;45.460;9.240;2023-12-20T14:44:43;8.65;;;2.88;;
22851;SDS011;11592;45.460;9.240;2023-12-20T14:47:11;10.68;;;3.50;;
22851;SDS011;11592;45.460;9.240;2023-12-20T14:49:40;8.63;;;2.75;;
22851;SDS011;11592;45.460;9.240;2023-12-20T14:52:08;8.20;;;2.78;;
22851;SDS011;11592;45.460;9.240;2023-12-20T14:54:38;8.02;;;2.80;;
22851;SDS011;11592;45.460;9.240;2023-12-20T14:57:05;8.07;;;2.58;;
22851;SDS011;11592;45.460;9.240;2023-12-20T14:59:34;8.98;;;3.05;;